Time;durP1;ratioP1;P1;durP2;ratioP2;P2;SDS_P1;SDS_P2;PMS_P1;PMS_P2;Temp;Humidity;BMP_temperature;BMP_pressure;BME280_temperature;BME280_humidity;BME280_pressure;Samples;Min_cycle;Max_cycle;Signal;HPM_P1;HPM_P2
2022/05/07 04:18:07;;;;;;;9.40;5.22;;;;;;;16.92;56.64;100225.47;4878050;28;20124;-71
2022/05/07 04:20:38;;;;;;;6.30;4.60;;;;;;;16.45;58.17;100223.91;4282026;33;33891;-72
2022/05/07 04:23:06;;;;;;;5.93;4.78;;;;;;;16.61;57.94;100227.47;4269542;33;34037;-70
2022/05/07 04:25:40;;;;;;;7.03;4.65;;;;;;;16.80;57.50;100235.94;4290508;33;34040;-73
2022/05/07 04:28:11;;;;;;;5.95;4.30;;;;;;;16.61;58.00;100230.22;4277813;33;33439;-70
2022/05/07 04:30:39;;;;;;;7.18;4.40;;;;;;;16.74;57.96;100223.34;4277913;33;33948;-73
2022/05/07 04:33:07;;;;;;;6.15;5.03;;;;;;;16.67;57.92;100231.81;4290170;33;34002;-71
2022/05/07 04:35:35;;;;;;;6.03;4.53;;;;;;;16.46;58.45;100227.47;4289396;33;34183;-68
2022/05/07 04:38:03;;;;;;;5.95;4.70;;;;;;;17.00;56.79;100232.31;4287655;33;34588;-70
2022/05/07 04:40:31;;;;;;;6.10;4.70;;;;;;;16.81;57.74;100235.66;4292902;33;34103;-66
2022/05/07 04:42:58;;;;;;;6.15;4.22;;;;;;;16.97;57.27;100235.59;4290033;33;33903;-68
2022/05/07 04:45:28;;;;;;;6.15;4.75;;;;;;;16.73;58.23;100235.38;4289611;33;33886;-66
2022/05/07 04:47:57;;;;;;;6.90;4.68;;;;;;;17.17;56.67;100234.69;4302398;33;34229;-67
2022/05/07 04:50:25;;;;;;;6.50;4.53;;;;;;;17.12;56.34;100227.31;4298070;33;33888;-71
2022/05/07 04:52:53;;;;;;;6.32;4.90;;;;;;;17.07;56.89;100240.25;4281779;33;34073;-70
2022/05/07 04:55:22;;;;;;;7.25;5.00;;;;;;;16.91;57.80;100236.72;4290424;33;34641;-70
2022/05/07 04:57:51;;;;;;;6.18;4.62;;;;;;;17.13;56.94;100233.66;4290464;33;33225;-72
2022/05/07 05:00:21;;;;;;;6.25;4.43;;;;;;;17.14;56.99;100238.00;4290244;33;33933;-67
2022/05/07 05:02:50;;;;;;;8.07;4.93;;;;;;;17.10;57.32;100240.47;4290418;33;34037;-73
2022/05/07 05:05:18;;;;;;;7.32;5.25;;;;;;;17.09;56.78;100238.84;4276742;33;34516;-69
2022/05/07 05:07:46;;;;;;;7.05;4.30;;;;;;;16.68;58.48;100238.94;4290430;33;34398;-73
2022/05/07 05:10:18;;;;;;;5.68;4.47;;;;;;;16.83;58.09;100238.13;4289313;33;34041;-69
2022/05/07 05:12:46;;;;;;;6.18;4.55;;;;;;;16.83;57.95;100235.38;4264362;33;33535;-70
2022/05/07 05:15:15;;;;;;;6.32;4.32;;;;;;;16.45;60.25;100240.34;4277437;33;33807;-73
2022/05/07 05:17:42;;;;;;;6.68;4.65;;;;;;;17.06;57.54;100244.88;4277122;33;33327;-74
2022/05/07 05:20:11;;;;;;;6.72;4.15;;;;;;;17.06;57.56;100244.06;4288214;33;32384;-73
2022/05/07 05:22:45;;;;;;;5.75;4.07;;;;;;;17.12;57.09;100245.69;4274053;33;35159;-68
2022/05/07 05:25:13;;;;;;;7.03;4.50;;;;;;;17.27;56.87;100247.56;4282546;33;34307;-69
2022/05/07 05:27:40;;;;;;;6.50;4.65;;;;;;;17.26;57.04;100248.69;4289955;33;34246;-68
2022/05/07 05:30:09;;;;;;;6.10;4.62;;;;;;;17.25;56.81;100241.53;4289821;33;34673;-71
2022/05/07 05:32:37;;;;;;;6.05;4.40;;;;;;;17.27;56.90;100245.62;4289986;33;34293;-67
2022/05/07 05:35:05;;;;;;;6.03;4.62;;;;;;;17.77;55.31;100245.62;4289849;33;34100;-68
2022/05/07 05:37:33;;;;;;;6.12;4.37;;;;;;;17.51;56.25;100248.53;4289939;33;34103;-74
2022/05/07 05:40:01;;;;;;;5.53;4.40;;;;;;;17.34;56.66;100243.44;4289126;33;34940;-69
2022/05/07 05:42:30;;;;;;;6.82;4.78;;;;;;;17.44;56.67;100248.03;4289959;33;34417;-67
2022/05/07 05:44:57;;;;;;;5.90;4.90;;;;;;;17.16;57.87;100260.50;4283001;33;33943;-70
2022/05/07 05:47:25;;;;;;;6.53;5.18;;;;;;;17.61;56.02;100251.22;4275654;33;34063;-67
2022/05/07 05:49:53;;;;;;;5.60;4.37;;;;;;;17.18;57.80;100247.31;4275033;33;34139;-70
2022/05/07 05:52:22;;;;;;;6.15;4.60;;;;;;;17.53;56.78;100254.56;4275244;33;34190;-66
2022/05/07 05:54:50;;;;;;;6.03;4.70;;;;;;;17.69;55.93;100254.47;4275088;33;34912;-68
2022/05/07 05:57:17;;;;;;;6.32;4.72;;;;;;;17.49;56.97;100245.25;4275075;33;34270;-73
2022/05/07 05:59:45;;;;;;;6.55;4.97;;;;;;;17.68;56.10;100253.66;4275058;33;34784;-68
2022/05/07 06:02:17;;;;;;;7.28;4.85;;;;;;;17.80;55.75;100251.38;4275390;33;33998;-73
2022/05/07 06:04:48;;;;;;;6.75;5.00;;;;;;;17.37;58.02;100251.06;4274897;33;34213;-73
2022/05/07 06:07:16;;;;;;;7.50;5.25;;;;;;;17.81;55.92;100254.94;4275528;33;33255;-71
2022/05/07 06:09:44;;;;;;;6.95;4.57;;;;;;;17.50;57.68;100251.56;4275109;33;33971;-71
2022/05/07 06:12:12;;;;;;;6.78;4.70;;;;;;;17.89;55.90;100257.13;4275430;33;34181;-74
2022/05/07 06:14:40;;;;;;;6.68;5.12;;;;;;;18.14;55.59;100256.12;4275079;33;33863;-74
2022/05/07 06:17:07;;;;;;;6.65;4.97;;;;;;;17.98;55.08;100255.41;4274577;33;33456;-68
2022/05/07 06:19:35;;;;;;;8.23;5.35;;;;;;;18.27;55.35;100256.53;4274898;33;33695;-67
2022/05/07 06:22:03;;;;;;;7.72;4.65;;;;;;;17.83;56.42;100261.00;4275194;33;35033;-74
2022/05/07 06:27:33;;;;;;;5.65;4.72;;;;;;;17.98;55.82;100262.81;4279506;33;33336;-67
2022/05/07 06:30:03;;;;;;;6.43;4.90;;;;;;;18.14;55.81;100266.25;4279636;33;33993;-71
2022/05/07 06:32:33;;;;;;;6.72;4.80;;;;;;;18.11;56.03;100261.34;4279108;33;33829;-73
2022/05/07 06:35:07;;;;;;;7.00;5.00;;;;;;;18.37;54.51;100250.97;4277423;33;34619;-71
2022/05/07 06:37:39;;;;;;;6.97;5.12;;;;;;;17.94;56.26;100262.56;4279494;33;33226;-69
2022/05/07 06:40:07;;;;;;;6.80;4.90;;;;;;;17.96;55.72;100268.59;4279101;33;33911;-68
2022/05/07 06:42:37;;;;;;;7.65;4.90;;;;;;;18.07;55.57;100268.53;4274712;33;33892;-68
2022/05/07 06:45:05;;;;;;;6.30;4.95;;;;;;;18.32;55.19;100262.81;4277945;33;34606;-68
2022/05/07 06:47:33;;;;;;;6.62;5.03;;;;;;;18.70;54.64;100260.25;4279047;33;33290;-71
2022/05/07 06:50:01;;;;;;;8.38;5.10;;;;;;;18.53;54.67;100265.38;4283467;33;34031;-68
2022/05/07 06:52:30;;;;;;;7.00;5.37;;;;;;;17.85;57.25;100264.28;4293820;33;34335;-69
2022/05/07 06:54:58;;;;;;;6.62;5.30;;;;;;;18.14;56.58;100260.78;4289224;33;34023;-67
2022/05/07 06:57:25;;;;;;;6.95;5.00;;;;;;;18.24;55.16;100260.69;4293455;33;33702;-66
2022/05/07 06:59:53;;;;;;;7.85;4.80;;;;;;;17.93;56.47;100262.88;4293389;33;33882;-71
2022/05/07 07:02:21;;;;;;;6.40;4.97;;;;;;;17.69;58.30;100258.03;4293371;33;33999;-66
2022/05/07 07:04:48;;;;;;;7.47;5.25;;;;;;;18.34;55.44;100263.34;4293402;33;34731;-70
2022/05/07 07:07:24;;;;;;;6.53;4.82;;;;;;;18.45;54.90;100253.09;4293309;33;33449;-66
2022/05/07 07:09:52;;;;;;;7.37;5.15;;;;;;;18.15;57.33;100256.94;4293486;33;34964;-70
2022/05/07 07:12:20;;;;;;;6.72;5.00;;;;;;;18.06;57.00;100258.66;4292911;33;34265;-71
2022/05/07 07:15:02;;;;;;;7.05;5.05;;;;;;;18.27;55.65;100265.59;4292861;33;33928;-73
2022/05/07 07:17:32;;;;;;;6.30;4.70;;;;;;;18.60;56.27;100269.44;4293257;33;33488;-68
2022/05/07 07:20:01;;;;;;;7.20;4.90;;;;;;;18.98;54.28;100266.84;4293286;33;34681;-68
2022/05/07 07:22:29;;;;;;;6.50;4.47;;;;;;;18.77;55.48;100268.19;4293378;33;34129;-68
2022/05/07 07:24:56;;;;;;;7.43;5.15;;;;;;;18.96;54.16;100268.28;4293476;33;33559;-70
2022/05/07 07:27:26;;;;;;;7.95;4.90;;;;;;;18.96;56.09;100274.63;4293413;33;33406;-70
2022/05/07 07:29:53;;;;;;;7.65;4.70;;;;;;;18.93;53.70;100266.12;4272281;33;34713;-69
2022/05/07 07:32:21;;;;;;;6.50;4.45;;;;;;;18.92;53.40;100265.31;4278059;33;34222;-68
2022/05/07 07:34:49;;;;;;;6.12;4.62;;;;;;;19.30;52.65;100275.59;4278551;33;34749;-66
2022/05/07 07:37:17;;;;;;;6.80;4.85;;;;;;;19.50;52.80;100274.50;4275724;33;34310;-67
2022/05/07 07:39:44;;;;;;;6.55;4.70;;;;;;;19.71;50.90;100286.09;4276198;33;34048;-68
2022/05/07 07:42:12;;;;;;;7.03;4.85;;;;;;;19.30;51.13;100276.41;4275887;33;34292;-68
2022/05/07 07:44:40;;;;;;;6.25;4.53;;;;;;;19.14;52.11;100277.72;4275631;33;33833;-67
2022/05/07 07:49:56;;;;;;;6.50;4.75;;;;;;;18.81;53.75;100278.34;4275874;33;34118;-67
2022/05/07 07:52:24;;;;;;;6.15;4.62;;;;;;;18.84;54.22;100275.00;4275827;33;35100;-69
2022/05/07 07:54:51;;;;;;;9.20;5.07;;;;;;;18.74;54.69;100277.00;4276215;33;34262;-67
2022/05/07 07:57:20;;;;;;;6.30;4.53;;;;;;;19.18;53.21;100281.47;4275985;33;33300;-69
2022/05/07 07:59:54;;;;;;;6.32;4.35;;;;;;;19.18;52.73;100278.75;4276068;33;33817;-70
2022/05/07 08:02:22;;;;;;;7.18;4.80;;;;;;;19.61;52.15;100273.25;4275978;33;34201;-70
2022/05/07 08:04:54;;;;;;;8.52;5.12;;;;;;;19.52;51.99;100281.34;4275992;33;33909;-68
2022/05/07 08:12:54;;;;;;;6.45;4.70;;;;;;;19.43;52.51;100281.19;4275788;33;33810;-68
2022/05/07 08:15:23;;;;;;;6.68;4.30;;;;;;;19.68;51.41;100282.78;4275972;33;34850;-67
2022/05/07 08:17:51;;;;;;;7.75;5.05;;;;;;;19.45;52.46;100280.87;4275861;33;33618;-68
2022/05/07 08:20:21;;;;;;;6.40;4.90;;;;;;;19.36;54.17;100282.66;4275882;33;34835;-69
2022/05/07 08:22:49;;;;;;;7.30;4.70;;;;;;;19.62;52.05;100281.22;4275894;33;33977;-68
2022/05/07 08:25:16;;;;;;;7.22;5.07;;;;;;;19.89;50.85;100288.00;4276042;33;34011;-68
2022/05/07 08:27:43;;;;;;;7.72;4.72;;;;;;;19.85;52.10;100285.06;4276066;33;33560;-70
2022/05/07 08:30:11;;;;;;;9.52;5.07;;;;;;;19.61;51.96;100287.84;4275682;33;34010;-69
2022/05/07 08:32:39;;;;;;;6.15;5.10;;;;;;;20.21;50.74;100284.50;4276022;33;35095;-68
2022/05/07 08:35:07;;;;;;;6.37;4.47;;;;;;;19.75;51.64;100287.94;4276016;33;34742;-69
2022/05/07 08:37:34;;;;;;;6.50;4.57;;;;;;;20.46;49.19;100291.53;4275559;33;33936;-70
2022/05/07 08:40:03;;;;;;;7.95;5.40;;;;;;;20.55;49.79;100291.66;4275863;33;34450;-70
2022/05/07 08:42:36;;;;;;;6.62;4.68;;;;;;;20.67;49.52;100289.28;4275594;33;35179;-68
2022/05/07 08:45:04;;;;;;;7.25;5.20;;;;;;;20.57;50.17;100283.94;4275596;33;33967;-68
2022/05/07 08:47:32;;;;;;;6.25;4.68;;;;;;;20.76;48.90;100294.09;4275743;33;34440;-71
2022/05/07 08:49:59;;;;;;;7.15;5.03;;;;;;;20.77;48.70;100292.97;4276067;33;34053;-71
2022/05/07 08:52:28;;;;;;;6.70;4.55;;;;;;;20.55;49.10;100294.41;4269853;33;34180;-69
2022/05/07 08:54:57;;;;;;;6.53;4.72;;;;;;;20.35;49.31;100294.78;4274087;33;34672;-67
2022/05/07 08:57:25;;;;;;;6.70;4.55;;;;;;;20.72;49.20;100293.88;4275683;33;33600;-68
2022/05/07 08:59:53;;;;;;;6.70;4.80;;;;;;;21.13;47.80;100292.28;4275592;33;34834;-71
2022/05/07 09:02:21;;;;;;;6.95;5.12;;;;;;;21.56;45.85;100290.03;4276050;33;34209;-70
2022/05/07 09:04:58;;;;;;;5.95;4.12;;;;;;;21.77;45.57;100284.91;4275957;33;33734;-70
2022/05/07 09:07:26;;;;;;;6.97;4.72;;;;;;;21.28;46.29;100292.78;4275741;33;33124;-66
2022/05/07 09:09:54;;;;;;;7.65;4.53;;;;;;;21.57;45.17;100288.09;4275763;33;34016;-66
2022/05/07 09:12:26;;;;;;;5.82;4.05;;;;;;;21.37;45.90;100297.59;4275489;33;33941;-66
2022/05/07 09:14:59;;;;;;;6.37;4.20;;;;;;;21.64;44.36;100291.22;4275715;33;33660;-71
2022/05/07 09:17:27;;;;;;;6.30;4.22;;;;;;;21.58;47.29;100286.97;4262573;33;33411;-72
2022/05/07 09:19:55;;;;;;;6.28;4.03;;;;;;;21.38;46.16;100290.94;4262643;33;34499;-71
2022/05/07 09:22:25;;;;;;;5.25;4.05;;;;;;;21.97;42.09;100288.31;4275654;33;34964;-69
2022/05/07 09:24:55;;;;;;;5.95;4.10;;;;;;;21.96;43.52;100283.91;4275678;33;33957;-71
2022/05/07 09:27:23;;;;;;;6.30;4.30;;;;;;;21.93;43.29;100277.06;4275669;33;33399;-68
2022/05/07 09:30:02;;;;;;;5.20;3.85;;;;;;;22.20;43.10;100276.16;4275479;33;34858;-69
2022/05/07 09:32:37;;;;;;;5.47;4.20;;;;;;;22.27;42.39;100281.25;4275463;33;34010;-71
2022/05/07 09:38:02;;;;;;;6.97;4.37;;;;;;;21.27;44.31;100277.37;4275355;33;33730;-70
2022/05/07 09:40:31;;;;;;;8.20;4.95;;;;;;;21.18;45.55;100272.88;4275501;33;34013;-71
2022/05/07 09:42:58;;;;;;;6.12;4.07;;;;;;;21.29;45.72;100266.84;4275097;33;35111;-68
2022/05/07 09:45:30;;;;;;;5.25;3.75;;;;;;;21.89;42.43;100268.56;4275453;33;34023;-70
2022/05/07 09:48:02;;;;;;;5.18;3.78;;;;;;;21.67;44.23;100261.06;4275349;33;33513;-68
2022/05/07 09:58:42;;;;;;;6.62;3.85;;;;;;;22.08;41.38;100239.97;4274601;33;34376;-68
2022/05/07 10:01:44;;;;;;;4.43;3.62;;;;;;;21.57;42.24;100243.91;4275043;33;33987;-70
2022/05/07 10:04:19;;;;;;;6.82;4.00;;;;;;;21.02;44.34;100245.59;4267585;33;34211;-68
2022/05/07 10:07:13;;;;;;;5.12;3.78;;;;;;;21.73;42.01;100234.16;4275373;33;33985;-69
2022/05/07 10:10:01;;;;;;;4.00;3.30;;;;;;;22.17;40.79;100248.31;4262455;33;34201;-70
2022/05/07 10:12:30;;;;;;;5.72;3.42;;;;;;;22.29;39.74;100237.53;4262801;33;33748;-68
2022/05/07 10:15:09;;;;;;;5.47;3.55;;;;;;;22.49;39.33;100238.94;4260410;33;35156;-66
2022/05/07 10:17:36;;;;;;;6.47;3.60;;;;;;;22.22;40.29;100246.25;4269612;33;34158;-68
2022/05/07 10:20:09;;;;;;;5.80;3.85;;;;;;;22.52;40.46;100232.78;4278031;33;33535;-68
2022/05/07 10:22:37;;;;;;;4.12;3.10;;;;;;;22.61;40.10;100236.41;4289531;33;34116;-69
2022/05/07 10:25:05;;;;;;;4.47;3.35;;;;;;;22.68;40.21;100228.47;4287059;33;33939;-68
2022/05/07 10:27:35;;;;;;;7.78;3.75;;;;;;;23.10;38.78;100230.94;4289169;33;33918;-71
2022/05/07 10:30:04;;;;;;;5.40;3.40;;;;;;;22.86;38.86;100218.28;4286668;33;33794;-67
2022/05/07 10:33:03;;;;;;;5.10;3.30;;;;;;;23.16;38.16;100226.09;4289007;33;34814;-68
2022/05/07 10:35:41;;;;;;;4.68;3.35;;;;;;;22.88;38.23;100232.63;4278983;33;34217;-67
2022/05/07 10:38:12;;;;;;;5.18;3.40;;;;;;;22.66;37.90;100227.97;4289004;33;33733;-69
2022/05/07 10:40:50;;;;;;;6.57;3.87;;;;;;;22.71;39.31;100225.06;4288774;33;34298;-69
2022/05/07 10:43:30;;;;;;;4.97;3.60;;;;;;;22.16;40.39;100219.87;4289124;33;34249;-68
2022/05/07 10:46:02;;;;;;;4.90;3.10;;;;;;;22.43;40.00;100213.37;4287913;33;34987;-70
2022/05/07 10:48:42;;;;;;;5.90;3.40;;;;;;;23.10;37.50;100219.87;4283653;33;34112;-70
2022/05/07 10:51:16;;;;;;;5.43;3.45;;;;;;;23.06;37.17;100218.88;4288907;33;33503;-68
2022/05/07 10:53:44;;;;;;;4.62;3.28;;;;;;;23.02;36.49;100221.47;4288876;33;33767;-67
2022/05/07 10:56:21;;;;;;;5.93;4.37;;;;;;;23.02;38.36;100221.47;4288905;33;34171;-68
2022/05/07 10:58:50;;;;;;;5.05;3.45;;;;;;;23.21;38.29;100214.84;4288954;33;33585;-70
2022/05/07 11:01:19;;;;;;;5.07;3.78;;;;;;;23.01;38.43;100210.72;4288975;33;33443;-68
2022/05/07 11:03:48;;;;;;;4.75;3.28;;;;;;;22.83;39.18;100207.88;4288723;33;34177;-69
2022/05/07 11:06:16;;;;;;;5.30;3.58;;;;;;;23.25;37.12;100213.87;4288834;33;35024;-70
2022/05/07 11:08:52;;;;;;;5.80;3.03;;;;;;;23.37;38.33;100198.56;4289102;33;33922;-68
2022/05/07 11:11:21;;;;;;;4.93;3.50;;;;;;;23.08;36.77;100205.53;4288923;33;34397;-68
2022/05/07 11:13:54;;;;;;;4.47;3.37;;;;;;;22.26;38.31;100208.56;4290020;33;34049;-69
2022/05/07 11:16:23;;;;;;;4.12;3.17;;;;;;;23.07;39.62;100210.25;4275212;33;33702;-70
2022/05/07 11:18:53;;;;;;;4.30;3.00;;;;;;;23.26;35.68;100212.75;4276331;33;34143;-70
2022/05/07 11:21:21;;;;;;;5.07;2.97;;;;;;;23.36;36.29;100202.50;4276315;33;33686;-69
2022/05/07 11:24:01;;;;;;;3.72;2.90;;;;;;;23.63;35.19;100201.38;4276072;33;34124;-70
2022/05/07 11:26:28;;;;;;;4.82;3.10;;;;;;;23.84;34.85;100205.12;4275552;33;34079;-68
2022/05/07 11:28:56;;;;;;;3.55;2.58;;;;;;;24.03;33.79;100199.25;4276209;33;33750;-68
2022/05/07 11:31:31;;;;;;;3.97;3.15;;;;;;;23.72;34.44;100203.00;4275760;33;34088;-68
2022/05/07 11:34:10;;;;;;;7.97;3.60;;;;;;;23.86;36.58;100191.78;4273717;33;33909;-67
2022/05/07 11:36:38;;;;;;;4.85;3.42;;;;;;;23.91;36.61;100193.59;4271156;33;34373;-69
2022/05/07 11:39:07;;;;;;;5.43;3.37;;;;;;;24.10;35.93;100196.00;4276102;33;33291;-70
2022/05/07 11:41:36;;;;;;;4.80;3.53;;;;;;;23.14;40.58;100188.44;4274387;33;33361;-74
2022/05/07 11:47:23;;;;;;;5.00;3.37;;;;;;;23.85;35.24;100187.38;4253256;33;34997;-73
2022/05/07 11:50:07;;;;;;;4.30;3.30;;;;;;;24.05;36.21;100190.63;4263754;33;33922;-82
2022/05/07 11:52:35;;;;;;;5.20;3.00;;;;;;;24.28;35.06;100182.91;4276209;33;34230;-72
2022/05/07 11:55:05;;;;;;;7.35;3.67;;;;;;;24.51;36.72;100178.81;4276243;33;33853;-71
2022/05/07 11:57:35;;;;;;;4.25;3.40;;;;;;;24.64;35.49;100179.69;4275801;33;34227;-71
2022/05/07 12:00:17;;;;;;;5.93;3.70;;;;;;;24.42;36.84;100179.94;4276170;33;34798;-73
2022/05/07 12:02:52;;;;;;;6.75;3.65;;;;;;;24.13;37.67;100175.94;4263120;33;33575;-73
2022/05/07 12:05:20;;;;;;;4.43;3.47;;;;;;;24.24;37.26;100174.44;4276148;33;33574;-72
2022/05/07 12:07:49;;;;;;;5.43;3.37;;;;;;;24.52;35.13;100172.09;4263332;33;34950;-73
2022/05/07 12:10:18;;;;;;;5.43;3.03;;;;;;;24.32;34.04;100178.34;4275832;33;33716;-71
2022/05/07 12:12:47;;;;;;;3.62;2.70;;;;;;;24.12;34.18;100165.97;4276177;33;33670;-71
2022/05/07 12:15:15;;;;;;;4.28;2.65;;;;;;;23.87;35.78;100167.69;4276138;33;34687;-75
2022/05/07 12:17:57;;;;;;;4.20;2.95;;;;;;;23.90;34.11;100170.59;4275443;33;34211;-73
2022/05/07 12:20:25;;;;;;;4.45;3.00;;;;;;;24.06;34.33;100167.28;4275970;33;34016;-73
2022/05/07 12:31:19;;;;;;;4.55;2.70;;;;;;;24.24;34.13;100159.78;4275811;33;33846;-71
2022/05/07 12:33:47;;;;;;;3.62;2.92;;;;;;;24.95;31.96;100162.75;4276156;33;33453;-72
2022/05/07 12:36:14;;;;;;;4.45;2.95;;;;;;;25.04;33.43;100150.78;4275818;33;34828;-71
2022/05/07 12:38:42;;;;;;;4.28;2.90;;;;;;;25.34;32.66;100154.34;4275594;33;34671;-69
2022/05/07 12:41:13;;;;;;;4.60;2.97;;;;;;;25.24;32.37;100154.75;4275922;33;34574;-71
2022/05/07 12:43:40;;;;;;;4.00;2.95;;;;;;;25.33;30.03;100150.75;4275830;33;33833;-71
2022/05/07 12:46:09;;;;;;;5.65;2.87;;;;;;;25.08;30.67;100151.75;4275321;33;33983;-70
2022/05/07 12:48:37;;;;;;;4.07;2.75;;;;;;;24.94;30.83;100150.00;4275877;33;34883;-72
2022/05/07 12:51:04;;;;;;;3.42;2.67;;;;;;;24.46;32.95;100142.06;4275788;33;34651;-70
2022/05/07 12:53:32;;;;;;;4.12;2.70;;;;;;;24.73;32.45;100141.66;4275698;33;34565;-72
2022/05/07 12:55:59;;;;;;;4.47;2.95;;;;;;;24.22;32.83;100140.69;4275658;33;34011;-71
2022/05/07 12:58:28;;;;;;;4.07;2.72;;;;;;;24.45;31.25;100140.44;4275776;33;34117;-72
2022/05/07 13:00:57;;;;;;;4.15;2.85;;;;;;;24.83;31.32;100134.09;4275790;33;33944;-72
2022/05/07 13:03:24;;;;;;;3.55;2.80;;;;;;;24.97;31.09;100129.91;4275808;33;33332;-72
2022/05/07 13:05:52;;;;;;;3.87;2.90;;;;;;;25.21;30.25;100133.22;4275687;33;34559;-71
2022/05/07 13:08:20;;;;;;;4.00;2.62;;;;;;;24.56;31.03;100125.91;4275732;33;34009;-72
2022/05/07 13:10:48;;;;;;;3.05;2.60;;;;;;;24.34;31.97;100129.72;4262698;33;33913;-75
2022/05/07 13:13:18;;;;;;;3.70;2.40;;;;;;;23.87;32.66;100120.56;4275519;33;34234;-71
2022/05/07 13:15:46;;;;;;;4.05;2.58;;;;;;;23.52;32.91;100115.00;4275577;33;33870;-72
2022/05/07 13:18:14;;;;;;;4.47;2.45;;;;;;;24.10;32.42;100127.53;4275403;33;34224;-71
2022/05/07 13:20:42;;;;;;;4.35;2.58;;;;;;;23.48;33.12;100114.87;4275500;33;33916;-72
2022/05/07 13:23:12;;;;;;;7.03;3.00;;;;;;;24.08;32.91;100106.81;4275502;33;33478;-72
2022/05/07 13:25:40;;;;;;;5.75;2.53;;;;;;;24.55;32.44;100112.34;4262966;33;33908;-71
2022/05/07 13:28:07;;;;;;;5.28;2.50;;;;;;;24.41;30.59;100108.97;4275461;33;34282;-72
2022/05/07 13:30:35;;;;;;;2.65;2.30;;;;;;;25.09;30.86;100103.38;4275660;33;33864;-69
2022/05/07 13:33:04;;;;;;;3.20;2.20;;;;;;;24.72;31.71;100108.69;4262854;33;33262;-70
2022/05/07 13:35:31;;;;;;;3.62;2.50;;;;;;;25.09;29.13;100115.28;4274377;33;34045;-70
2022/05/07 13:37:59;;;;;;;3.70;2.53;;;;;;;24.94;29.53;100110.34;4262731;33;34132;-69
2022/05/07 13:40:26;;;;;;;3.67;2.25;;;;;;;25.11;29.34;100107.44;4275554;33;33932;-69
2022/05/07 13:42:54;;;;;;;3.53;2.60;;;;;;;24.63;32.21;100107.91;4275405;33;33425;-70
2022/05/07 13:45:21;;;;;;;2.80;2.40;;;;;;;25.32;29.36;100101.13;4275508;33;34041;-69
2022/05/07 13:47:51;;;;;;;3.30;2.72;;;;;;;24.93;30.23;100097.63;4275327;33;35081;-70
2022/05/07 13:50:20;;;;;;;3.30;2.42;;;;;;;24.16;30.77;100092.09;4275200;33;34779;-70
2022/05/07 13:52:48;;;;;;;4.85;2.78;;;;;;;24.88;32.40;100089.47;4275693;33;33480;-70
2022/05/07 13:55:15;;;;;;;3.25;2.50;;;;;;;25.20;30.99;100085.19;4275582;33;34095;-70
2022/05/07 13:57:43;;;;;;;4.45;2.80;;;;;;;25.28;30.43;100089.06;4275119;33;33974;-70
2022/05/07 14:00:13;;;;;;;3.67;2.67;;;;;;;25.36;30.57;100090.94;4275478;33;33596;-70
2022/05/07 14:02:41;;;;;;;4.40;2.40;;;;;;;25.28;31.33;100084.31;4275502;33;33553;-69
2022/05/07 14:05:10;;;;;;;3.67;2.20;;;;;;;24.58;31.64;100083.97;4275598;33;33953;-71
2022/05/07 14:07:37;;;;;;;3.08;2.28;;;;;;;24.91;31.91;100086.03;4275284;33;34338;-69
2022/05/07 14:10:09;;;;;;;3.37;2.33;;;;;;;25.17;30.53;100083.06;4275044;33;33896;-70
2022/05/07 14:12:36;;;;;;;3.90;2.53;;;;;;;25.36;29.88;100079.84;4275264;33;33449;-69
2022/05/07 14:15:05;;;;;;;3.90;2.60;;;;;;;25.26;31.13;100085.81;4275204;33;34104;-69
2022/05/07 14:17:33;;;;;;;3.83;2.62;;;;;;;25.29;30.84;100082.34;4274622;33;34673;-69
2022/05/07 14:20:01;;;;;;;4.57;2.70;;;;;;;24.64;31.49;100085.38;4275292;33;33627;-70
2022/05/07 14:22:31;;;;;;;3.67;2.58;;;;;;;25.05;31.92;100088.53;4275171;33;33278;-70
2022/05/07 14:25:03;;;;;;;3.97;2.87;;;;;;;24.93;31.94;100084.53;4274895;33;34943;-71
2022/05/07 14:27:32;;;;;;;5.78;2.75;;;;;;;25.00;31.78;100089.56;4275190;33;34190;-69
2022/05/07 14:30:02;;;;;;;3.72;2.37;;;;;;;25.02;31.75;100081.72;4274896;33;34074;-70
2022/05/07 14:32:30;;;;;;;5.43;3.00;;;;;;;25.07;31.70;100083.47;4274903;33;33254;-69
2022/05/07 14:34:58;;;;;;;4.05;2.70;;;;;;;24.89;33.38;100082.78;4274851;33;34786;-70
2022/05/07 14:37:26;;;;;;;4.12;2.67;;;;;;;24.99;33.05;100085.16;4280545;33;34217;-66
2022/05/07 14:39:53;;;;;;;3.70;2.60;;;;;;;25.21;31.84;100078.50;4272343;33;34012;-67
2022/05/07 14:42:22;;;;;;;3.50;2.55;;;;;;;24.27;33.96;100078.69;4273617;33;33438;-66
2022/05/07 14:44:51;;;;;;;4.55;3.08;;;;;;;25.04;33.22;100075.81;4273532;33;34998;-65
2022/05/07 14:47:21;;;;;;;4.62;2.67;;;;;;;24.92;34.33;100079.31;4277513;33;35089;-67
2022/05/07 14:49:48;;;;;;;5.47;2.67;;;;;;;24.67;33.16;100070.84;4289482;33;34820;-70
2022/05/07 14:52:16;;;;;;;3.78;2.70;;;;;;;24.52;32.33;100085.28;4288595;33;33434;-71
2022/05/07 14:54:56;;;;;;;4.10;2.83;;;;;;;24.37;33.62;100076.34;4289197;33;33719;-68
2022/05/07 14:57:26;;;;;;;4.65;2.50;;;;;;;24.84;32.91;100078.25;4286486;33;34134;-67
2022/05/07 14:59:53;;;;;;;3.97;2.40;;;;;;;23.99;33.70;100070.78;4289586;33;33668;-69
2022/05/07 15:02:20;;;;;;;4.22;2.65;;;;;;;24.20;34.26;100064.53;4289539;33;33013;-67
2022/05/07 15:04:48;;;;;;;5.32;2.87;;;;;;;23.98;33.61;100077.50;4289387;33;35262;-67
2022/05/07 15:07:16;;;;;;;3.62;2.42;;;;;;;24.49;34.07;100074.84;4288870;33;33883;-67
2022/05/07 15:12:31;;;;;;;3.83;2.47;;;;;;;24.05;33.41;100071.44;4289266;33;34082;-68
2022/05/07 15:14:58;;;;;;;3.47;2.40;;;;;;;24.52;31.84;100071.44;4289312;33;34658;-67
2022/05/07 15:17:27;;;;;;;3.80;2.60;;;;;;;23.98;32.38;100071.94;4288870;33;34943;-67
2022/05/07 15:19:55;;;;;;;3.72;2.45;;;;;;;24.40;32.49;100071.28;4285918;33;33940;-68
2022/05/07 15:22:22;;;;;;;3.05;2.25;;;;;;;24.42;33.03;100066.22;4289271;33;33481;-68
2022/05/07 15:24:50;;;;;;;3.20;2.25;;;;;;;23.90;31.47;100070.00;4289367;33;33742;-69
2022/05/07 15:27:18;;;;;;;3.83;2.65;;;;;;;24.04;32.00;100072.56;4289633;33;34873;-69
2022/05/07 15:29:46;;;;;;;3.90;2.70;;;;;;;24.28;32.93;100070.03;4277674;33;33964;-69
2022/05/07 15:37:46;;;;;;;2.30;2.10;;;;;;;24.06;32.13;100061.97;4284929;33;34711;-69
2022/05/07 15:40:13;;;;;;;4.35;2.70;;;;;;;24.19;32.49;100058.19;4289110;33;34380;-68
2022/05/07 15:42:41;;;;;;;3.62;2.10;;;;;;;23.45;33.20;100062.09;4289082;33;33269;-69
2022/05/07 15:45:11;;;;;;;4.37;2.47;;;;;;;23.60;33.12;100058.81;4288741;33;34436;-67
2022/05/07 15:47:40;;;;;;;5.57;2.72;;;;;;;23.81;33.37;100060.91;4289073;33;35191;-67
2022/05/07 15:50:08;;;;;;;3.85;2.60;;;;;;;23.74;32.77;100053.09;4288890;33;33977;-67
2022/05/07 15:52:35;;;;;;;2.92;2.30;;;;;;;23.84;32.99;100060.25;4288748;33;33521;-67
2022/05/07 15:55:04;;;;;;;3.10;2.22;;;;;;;23.67;32.14;100061.91;4288921;33;34908;-68
2022/05/07 15:57:32;;;;;;;3.50;2.40;;;;;;;23.42;32.77;100052.47;4288715;33;33932;-68
2022/05/07 16:00:00;;;;;;;4.15;2.40;;;;;;;23.63;33.41;100055.41;4288779;33;33915;-67
2022/05/07 16:02:37;;;;;;;3.20;2.22;;;;;;;23.92;32.01;100056.66;4289204;33;34491;-68
2022/05/07 16:05:06;;;;;;;4.53;2.62;;;;;;;24.47;27.69;100049.38;4289007;33;33865;-68
2022/05/07 16:07:34;;;;;;;4.53;2.20;;;;;;;23.55;29.14;100051.47;4288709;33;34307;-68
2022/05/07 16:10:01;;;;;;;2.70;2.00;;;;;;;23.81;29.31;100045.09;4289115;33;34033;-67
2022/05/07 16:12:30;;;;;;;3.72;2.50;;;;;;;24.02;29.03;100047.16;4289048;33;33098;-68
2022/05/07 16:14:58;;;;;;;4.03;2.40;;;;;;;23.90;28.88;100050.63;4288508;33;33638;-67
2022/05/07 16:17:25;;;;;;;3.97;2.60;;;;;;;24.47;27.10;100049.38;4288798;33;34099;-68
2022/05/07 16:19:53;;;;;;;3.55;2.22;;;;;;;24.27;29.27;100045.41;4288680;33;34242;-68
2022/05/07 16:25:08;;;;;;;3.37;2.15;;;;;;;24.01;28.12;100042.75;4289002;33;33963;-67
2022/05/07 16:27:36;;;;;;;2.20;1.87;;;;;;;24.15;28.09;100035.84;4289046;33;34245;-69
2022/05/07 16:30:05;;;;;;;3.12;2.22;;;;;;;24.07;27.48;100047.78;4288896;33;33611;-70
2022/05/07 16:32:33;;;;;;;4.05;2.28;;;;;;;24.53;28.87;100048.06;4288839;33;33537;-70
2022/05/07 16:35:01;;;;;;;4.45;2.62;;;;;;;24.33;26.94;100053.22;4288971;33;33947;-69
2022/05/07 16:37:28;;;;;;;4.22;2.30;;;;;;;23.97;27.72;100050.09;4288283;33;34813;-69